AirportContent of METAR report
LYBEMETAR LYBE 192330Z 15006KT 8000 NSC 13/12 Q1007 NOSIG=
LYBTMETAR LYBT 192330Z 12005KT 9999 SCT009 14/14 Q1006 NOSIG=
LYKVMETAR LYKV 192330Z VRB02KT 0400 FG VV002 13/13 Q1007 NOSIG=
LYNIMETAR LYNI 192330Z 15004KT 9999 BKN050 18/13 Q1007 NOSIG=
LYVRMETAR LYVR 192330Z 26003KT 200V310 CAVOK 14/13 Q1006 NOSIG=
LYUZMETAR LYUZ 192330Z AUTO VRB02KT CAVOK 09/07 Q1008=
LYPGMETAR LYPG 192330Z 13004KT 9999 SCT040 BKN080 16/15 Q1008 NOSIG=
LYTVMETAR LYTV 192330Z VRB01KT 9999 FEW046 BKN070 14/14 Q1008=

Data loaded: 2019-05-19 23:34:13 UTC

METAR, TAF, AIRMET, GAMET, SIGMET

Important note: MET information on these web pages are informative and restricted to aeronautical users, must not be used for any commercial purpose, and do not replace flight documentation.